McAlester, OK (74502)

4:23 PM CDT on August 30, 2014 (GMT -0500)
Kinkead Hills | Change Station
CLOSE
Current Station
Personal Weather Station
Location: McAlester, OK
Elevation: 808 ft
Nearby Weather Stations

Elev 808 ft 34.90 °N, 95.73 °W | Updated 12 minutes ago

Heavy Thunderstorms and Rain
Heavy Thunderstorm Rain
75.6 °F
Feels Like 76 °F
N
4.0
Wind Variable Wind from NNW

Today
High -- | Low -- °F
--% Chance of Precip.
Yesterday
High -- | Low -- °F
Precip. -- in
6:54 AM 7:52 PM
Waxing Crescent, 24% visible
Pressure 29.93 in
Visibility 2.0 miles
Clouds Mostly Cloudy 5000 ft
Mostly Cloudy 5500 ft
Overcast 7500 ft
Heat Index 76 °F
Dew Point 71 °F
Humidity 85%
Rainfall 0.14 in
Snow Depth Not available.
UV 2 out of 12
Pollen 8.70 out of 12
Air Quality Not available.
Flu Activity Not available.
SPECI KMLC 302117Z AUTO 05008G15KT 2SM +TSRA BKN050 BKN055 OVC075 23/20 A2993 RMK AO2 WSHFT 2048 LTG DSNT NE AND E AND SW T02330200 PNO $

More Conditions Fewer Conditions

Pressure 29.93 in
Visibility 2.0 miles
Clouds Mostly Cloudy 5000 ft
Mostly Cloudy 5500 ft
Overcast 7500 ft
Heat Index 76 °F
Dew Point 71 °F
Humidity 85%
Rainfall 0.14 in
Snow Depth Not available.
UV 2 out of 12
Pollen 8.70 out of 12
Air Quality Not available.
Flu Activity Not available.
SPECI KMLC 302117Z AUTO 05008G15KT 2SM +TSRA BKN050 BKN055 OVC075 23/20 A2993 RMK AO2 WSHFT 2048 LTG DSNT NE AND E AND SW T02330200 PNO $

More Conditions Fewer Conditions

10-Day Weather Forecast

Almanac

Astronomy

Aug. 30, 2014 Rise Set
Actual Time 6:54 AM CDT 7:52 PM CDT
Civil Twilight 6:28 AM CDT 8:18 PM CDT
Nautical Twilight 5:57 AM CDT 8:48 PM CDT
Astronomical Twilight 5:25 AM CDT 9:20 PM CDT
Moon 11:30 AM CDT 10:40 PM CDT
Length of Visible Light 13h 49m
Length of Day
12h 57m
Tomorrow will be 2m 5s shorter.
Waxing Crescent, 24% of the Moon is Illuminated
Today
Waxing Crescent
Sep 2
First Quarter
Sep 8
Full
Sep 15
Last Quarter
Sep 24
New

Today's Extremes

State Highs State Lows

Community

WunderPhotos

Upload Photos

1,748,635 photos uploaded!

WunderBlogs® & News

Nearby

Snow Depth

Station Depth Elevation
No new snow has been reported.

Earthquake Activity

City Distance Mag. Time & Date
Guthrie, Oklahoma 112 miles 3.2 10:39 AM CDT
2014-08-29
Perry, Oklahoma 134 miles 3.0 4:52 AM CDT
2014-08-29
Perry, Oklahoma 132 miles 3.1 10:01 PM CDT
2014-08-28
Minimum magnitude displayed is 2.5.

Coastal Water Temperatures

Place Temperature
No Stations Reporting

Nearby Weather Stations